sensor_id;sensor_type;location;lat;lon;timestamp;P1;durP1;ratioP1;P2;durP2;ratioP2
8857;SDS011;4465;50.904;4.696;2022-08-04T00:00:52;6.35;;;2.17;;
8857;SDS011;4465;50.904;4.696;2022-08-04T00:06:51;7.43;;;2.53;;
8857;SDS011;4465;50.904;4.696;2022-08-04T00:09:29;9.10;;;2.10;;
8857;SDS011;4465;50.904;4.696;2022-08-04T00:12:03;5.13;;;2.10;;
8857;SDS011;4465;50.904;4.696;2022-08-04T00:14:33;9.90;;;2.63;;
8857;SDS011;4465;50.904;4.696;2022-08-04T00:17:05;6.40;;;2.55;;
8857;SDS011;4465;50.904;4.696;2022-08-04T00:19:38;4.13;;;2.20;;
8857;SDS011;4465;50.904;4.696;2022-08-04T00:22:10;8.57;;;2.55;;
8857;SDS011;4465;50.904;4.696;2022-08-04T00:24:38;7.38;;;2.83;;
8857;SDS011;4465;50.904;4.696;2022-08-04T00:27:07;4.82;;;2.05;;
8857;SDS011;4465;50.904;4.696;2022-08-04T00:29:34;8.18;;;2.47;;
8857;SDS011;4465;50.904;4.696;2022-08-04T00:32:06;4.30;;;2.05;;
8857;SDS011;4465;50.904;4.696;2022-08-04T00:34:33;7.22;;;2.55;;
8857;SDS011;4465;50.904;4.696;2022-08-04T00:37:03;8.25;;;2.42;;
8857;SDS011;4465;50.904;4.696;2022-08-04T00:39:31;8.27;;;2.35;;
8857;SDS011;4465;50.904;4.696;2022-08-04T01:01:02;12.88;;;2.80;;
8857;SDS011;4465;50.904;4.696;2022-08-04T01:09:42;8.90;;;2.47;;
8857;SDS011;4465;50.904;4.696;2022-08-04T01:15:09;5.88;;;2.60;;
8857;SDS011;4465;50.904;4.696;2022-08-04T01:18:04;6.38;;;2.40;;
8857;SDS011;4465;50.904;4.696;2022-08-04T01:20:33;7.78;;;2.63;;
8857;SDS011;4465;50.904;4.696;2022-08-04T01:23:27;6.93;;;2.50;;
8857;SDS011;4465;50.904;4.696;2022-08-04T01:29:11;4.30;;;1.90;;
8857;SDS011;4465;50.904;4.696;2022-08-04T01:34:05;6.32;;;2.40;;
8857;SDS011;4465;50.904;4.696;2022-08-04T01:36:35;7.65;;;2.30;;
8857;SDS011;4465;50.904;4.696;2022-08-04T01:39:13;5.53;;;2.60;;
8857;SDS011;4465;50.904;4.696;2022-08-04T01:41:58;5.13;;;2.05;;
8857;SDS011;4465;50.904;4.696;2022-08-04T01:44:26;3.97;;;1.90;;
8857;SDS011;4465;50.904;4.696;2022-08-04T01:46:56;5.75;;;2.42;;
8857;SDS011;4465;50.904;4.696;2022-08-04T01:49:27;5.65;;;2.28;;
8857;SDS011;4465;50.904;4.696;2022-08-04T01:51:55;6.50;;;2.30;;
8857;SDS011;4465;50.904;4.696;2022-08-04T01:54:23;12.02;;;2.78;;
8857;SDS011;4465;50.904;4.696;2022-08-04T01:56:52;8.13;;;2.40;;
8857;SDS011;4465;50.904;4.696;2022-08-04T01:59:21;4.30;;;2.63;;
8857;SDS011;4465;50.904;4.696;2022-08-04T02:01:48;9.48;;;2.95;;
8857;SDS011;4465;50.904;4.696;2022-08-04T02:04:16;8.63;;;2.97;;
8857;SDS011;4465;50.904;4.696;2022-08-04T02:09:26;8.63;;;3.28;;
8857;SDS011;4465;50.904;4.696;2022-08-04T02:14:37;12.35;;;3.47;;
8857;SDS011;4465;50.904;4.696;2022-08-04T02:17:13;11.50;;;3.40;;
8857;SDS011;4465;50.904;4.696;2022-08-04T02:22:18;8.57;;;3.20;;
8857;SDS011;4465;50.904;4.696;2022-08-04T02:24:48;7.80;;;3.40;;
8857;SDS011;4465;50.904;4.696;2022-08-04T02:27:28;8.43;;;3.47;;
8857;SDS011;4465;50.904;4.696;2022-08-04T02:30:01;9.80;;;3.45;;
8857;SDS011;4465;50.904;4.696;2022-08-04T02:32:29;8.60;;;3.78;;
8857;SDS011;4465;50.904;4.696;2022-08-04T02:35:20;13.70;;;3.88;;
8857;SDS011;4465;50.904;4.696;2022-08-04T02:38:00;13.48;;;4.20;;
8857;SDS011;4465;50.904;4.696;2022-08-04T02:40:36;10.00;;;4.32;;
8857;SDS011;4465;50.904;4.696;2022-08-04T02:43:04;8.88;;;3.67;;
8857;SDS011;4465;50.904;4.696;2022-08-04T02:45:39;11.70;;;4.18;;
8857;SDS011;4465;50.904;4.696;2022-08-04T02:48:08;10.85;;;3.75;;
8857;SDS011;4465;50.904;4.696;2022-08-04T02:50:36;13.18;;;3.47;;
8857;SDS011;4465;50.904;4.696;2022-08-04T02:53:04;14.38;;;3.90;;
8857;SDS011;4465;50.904;4.696;2022-08-04T02:55:32;11.52;;;3.42;;
8857;SDS011;4465;50.904;4.696;2022-08-04T02:58:02;10.13;;;3.47;;
8857;SDS011;4465;50.904;4.696;2022-08-04T03:00:30;14.85;;;3.90;;
8857;SDS011;4465;50.904;4.696;2022-08-04T03:14:50;11.82;;;4.10;;
8857;SDS011;4465;50.904;4.696;2022-08-04T03:32:14;13.05;;;4.68;;
8857;SDS011;4465;50.904;4.696;2022-08-04T03:40:58;12.00;;;4.55;;
8857;SDS011;4465;50.904;4.696;2022-08-04T03:43:59;14.02;;;4.97;;
8857;SDS011;4465;50.904;4.696;2022-08-04T04:04:42;14.13;;;5.20;;
8857;SDS011;4465;50.904;4.696;2022-08-04T04:10:23;12.10;;;4.90;;
8857;SDS011;4465;50.904;4.696;2022-08-04T04:18:50;11.27;;;4.72;;
8857;SDS011;4465;50.904;4.696;2022-08-04T04:27:08;17.60;;;5.43;;
8857;SDS011;4465;50.904;4.696;2022-08-04T04:30:02;11.07;;;4.80;;
8857;SDS011;4465;50.904;4.696;2022-08-04T04:43:32;14.13;;;5.43;;
8857;SDS011;4465;50.904;4.696;2022-08-04T04:46:29;13.43;;;4.88;;
8857;SDS011;4465;50.904;4.696;2022-08-04T04:49:16;14.50;;;4.68;;
8857;SDS011;4465;50.904;4.696;2022-08-04T04:51:57;13.75;;;5.30;;
8857;SDS011;4465;50.904;4.696;2022-08-04T05:10:48;14.63;;;4.40;;
8857;SDS011;4465;50.904;4.696;2022-08-04T05:13:40;15.88;;;5.43;;
8857;SDS011;4465;50.904;4.696;2022-08-04T05:19:11;18.15;;;4.80;;
8857;SDS011;4465;50.904;4.696;2022-08-04T05:24:27;11.68;;;4.60;;
8857;SDS011;4465;50.904;4.696;2022-08-04T05:27:01;12.15;;;4.57;;
8857;SDS011;4465;50.904;4.696;2022-08-04T05:29:34;15.00;;;4.68;;
8857;SDS011;4465;50.904;4.696;2022-08-04T05:32:06;11.13;;;4.97;;
8857;SDS011;4465;50.904;4.696;2022-08-04T05:34:41;11.88;;;4.65;;
8857;SDS011;4465;50.904;4.696;2022-08-04T05:37:14;13.85;;;4.57;;
8857;SDS011;4465;50.904;4.696;2022-08-04T05:39:43;11.38;;;4.53;;
8857;SDS011;4465;50.904;4.696;2022-08-04T05:42:26;13.55;;;4.43;;
8857;SDS011;4465;50.904;4.696;2022-08-04T05:44:54;10.02;;;4.10;;
8857;SDS011;4465;50.904;4.696;2022-08-04T05:47:23;9.23;;;4.13;;
8857;SDS011;4465;50.904;4.696;2022-08-04T05:49:50;11.20;;;4.80;;
8857;SDS011;4465;50.904;4.696;2022-08-04T05:52:20;11.52;;;3.75;;
8857;SDS011;4465;50.904;4.696;2022-08-04T05:54:49;14.52;;;4.00;;
8857;SDS011;4465;50.904;4.696;2022-08-04T05:57:16;10.38;;;4.20;;
8857;SDS011;4465;50.904;4.696;2022-08-04T05:59:46;12.07;;;4.13;;
8857;SDS011;4465;50.904;4.696;2022-08-04T06:02:16;9.32;;;3.90;;
8857;SDS011;4465;50.904;4.696;2022-08-04T06:04:44;10.65;;;3.72;;
8857;SDS011;4465;50.904;4.696;2022-08-04T06:07:13;8.32;;;4.28;;
8857;SDS011;4465;50.904;4.696;2022-08-04T06:09:40;10.40;;;3.77;;
8857;SDS011;4465;50.904;4.696;2022-08-04T06:12:08;8.65;;;3.70;;
8857;SDS011;4465;50.904;4.696;2022-08-04T06:14:58;12.23;;;3.78;;
8857;SDS011;4465;50.904;4.696;2022-08-04T06:17:29;11.73;;;3.70;;
8857;SDS011;4465;50.904;4.696;2022-08-04T06:20:19;11.90;;;3.42;;
8857;SDS011;4465;50.904;4.696;2022-08-04T06:22:51;10.55;;;3.67;;
8857;SDS011;4465;50.904;4.696;2022-08-04T06:25:24;8.27;;;3.35;;
8857;SDS011;4465;50.904;4.696;2022-08-04T06:27:54;9.13;;;3.58;;
8857;SDS011;4465;50.904;4.696;2022-08-04T06:30:21;6.75;;;3.45;;
8857;SDS011;4465;50.904;4.696;2022-08-04T06:32:50;11.63;;;4.03;;
8857;SDS011;4465;50.904;4.696;2022-08-04T06:35:21;10.15;;;3.70;;
8857;SDS011;4465;50.904;4.696;2022-08-04T06:37:49;14.05;;;3.38;;
8857;SDS011;4465;50.904;4.696;2022-08-04T06:40:18;8.27;;;3.67;;
8857;SDS011;4465;50.904;4.696;2022-08-04T06:42:49;9.80;;;3.10;;
8857;SDS011;4465;50.904;4.696;2022-08-04T06:45:19;7.85;;;3.35;;
8857;SDS011;4465;50.904;4.696;2022-08-04T06:47:46;9.38;;;3.50;;
8857;SDS011;4465;50.904;4.696;2022-08-04T06:50:13;10.90;;;3.38;;
8857;SDS011;4465;50.904;4.696;2022-08-04T06:52:40;16.58;;;3.58;;
8857;SDS011;4465;50.904;4.696;2022-08-04T06:55:09;8.35;;;3.35;;
8857;SDS011;4465;50.904;4.696;2022-08-04T06:57:35;9.82;;;3.33;;
8857;SDS011;4465;50.904;4.696;2022-08-04T07:02:38;12.15;;;3.40;;
8857;SDS011;4465;50.904;4.696;2022-08-04T07:05:12;7.65;;;3.03;;
8857;SDS011;4465;50.904;4.696;2022-08-04T07:07:41;14.82;;;3.75;;
8857;SDS011;4465;50.904;4.696;2022-08-04T07:10:09;8.75;;;3.15;;
8857;SDS011;4465;50.904;4.696;2022-08-04T07:12:37;6.85;;;2.97;;
8857;SDS011;4465;50.904;4.696;2022-08-04T07:15:05;12.57;;;3.67;;
8857;SDS011;4465;50.904;4.696;2022-08-04T07:17:32;11.82;;;2.80;;
8857;SDS011;4465;50.904;4.696;2022-08-04T07:20:01;7.82;;;2.60;;
8857;SDS011;4465;50.904;4.696;2022-08-04T07:22:31;10.50;;;2.80;;
8857;SDS011;4465;50.904;4.696;2022-08-04T07:24:59;7.75;;;2.67;;
8857;SDS011;4465;50.904;4.696;2022-08-04T07:27:26;7.03;;;2.10;;
8857;SDS011;4465;50.904;4.696;2022-08-04T07:29:54;8.25;;;2.63;;
8857;SDS011;4465;50.904;4.696;2022-08-04T07:32:23;11.02;;;2.45;;
8857;SDS011;4465;50.904;4.696;2022-08-04T07:34:53;12.88;;;2.78;;
8857;SDS011;4465;50.904;4.696;2022-08-04T07:37:20;12.18;;;2.60;;
8857;SDS011;4465;50.904;4.696;2022-08-04T07:39:49;9.57;;;2.42;;
8857;SDS011;4465;50.904;4.696;2022-08-04T07:42:17;13.73;;;2.40;;
8857;SDS011;4465;50.904;4.696;2022-08-04T07:44:45;8.02;;;2.53;;
8857;SDS011;4465;50.904;4.696;2022-08-04T07:47:11;9.57;;;3.10;;
8857;SDS011;4465;50.904;4.696;2022-08-04T07:49:41;5.63;;;2.20;;
8857;SDS011;4465;50.904;4.696;2022-08-04T07:52:08;8.48;;;2.65;;
8857;SDS011;4465;50.904;4.696;2022-08-04T07:54:37;11.70;;;2.20;;
8857;SDS011;4465;50.904;4.696;2022-08-04T07:57:04;10.18;;;2.40;;
8857;SDS011;4465;50.904;4.696;2022-08-04T07:59:32;13.10;;;2.65;;
8857;SDS011;4465;50.904;4.696;2022-08-04T08:02:04;8.68;;;2.28;;
8857;SDS011;4465;50.904;4.696;2022-08-04T08:04:30;8.95;;;2.88;;
8857;SDS011;4465;50.904;4.696;2022-08-04T08:06:57;9.70;;;2.10;;
8857;SDS011;4465;50.904;4.696;2022-08-04T08:09:23;6.50;;;2.35;;
8857;SDS011;4465;50.904;4.696;2022-08-04T08:11:50;8.13;;;2.38;;
8857;SDS011;4465;50.904;4.696;2022-08-04T08:14:18;8.23;;;2.28;;
8857;SDS011;4465;50.904;4.696;2022-08-04T08:16:45;7.53;;;2.28;;
8857;SDS011;4465;50.904;4.696;2022-08-04T08:19:12;6.53;;;2.63;;
8857;SDS011;4465;50.904;4.696;2022-08-04T08:21:38;6.97;;;2.60;;
8857;SDS011;4465;50.904;4.696;2022-08-04T08:24:05;6.25;;;2.22;;
8857;SDS011;4465;50.904;4.696;2022-08-04T08:26:32;8.20;;;2.53;;
8857;SDS011;4465;50.904;4.696;2022-08-04T08:29:01;7.95;;;2.45;;
8857;SDS011;4465;50.904;4.696;2022-08-04T08:31:28;8.77;;;2.25;;
8857;SDS011;4465;50.904;4.696;2022-08-04T08:33:54;7.97;;;2.67;;
8857;SDS011;4465;50.904;4.696;2022-08-04T08:41:47;12.93;;;3.03;;
8857;SDS011;4465;50.904;4.696;2022-08-04T08:44:30;9.52;;;2.70;;
8857;SDS011;4465;50.904;4.696;2022-08-04T08:58:48;13.18;;;3.70;;
8857;SDS011;4465;50.904;4.696;2022-08-04T09:07:15;9.98;;;3.70;;
8857;SDS011;4465;50.904;4.696;2022-08-04T09:15:26;15.13;;;4.05;;
8857;SDS011;4465;50.904;4.696;2022-08-04T09:18:01;16.23;;;4.15;;
8857;SDS011;4465;50.904;4.696;2022-08-04T09:20:36;7.35;;;3.10;;
8857;SDS011;4465;50.904;4.696;2022-08-04T09:23:17;13.90;;;3.72;;
8857;SDS011;4465;50.904;4.696;2022-08-04T09:29:10;11.00;;;3.70;;
8857;SDS011;4465;50.904;4.696;2022-08-04T09:31:33;10.45;;;4.13;;
8857;SDS011;4465;50.904;4.696;2022-08-04T09:34:09;10.10;;;4.28;;
8857;SDS011;4465;50.904;4.696;2022-08-04T09:36:46;10.90;;;4.20;;
8857;SDS011;4465;50.904;4.696;2022-08-04T09:45:02;16.23;;;6.28;;
8857;SDS011;4465;50.904;4.696;2022-08-04T09:50:33;22.17;;;6.65;;
8857;SDS011;4465;50.904;4.696;2022-08-04T10:00:59;17.15;;;7.90;;
8857;SDS011;4465;50.904;4.696;2022-08-04T10:03:35;17.83;;;8.18;;
8857;SDS011;4465;50.904;4.696;2022-08-04T10:06:28;16.30;;;7.50;;
8857;SDS011;4465;50.904;4.696;2022-08-04T10:09:11;15.10;;;7.30;;
8857;SDS011;4465;50.904;4.696;2022-08-04T10:11:51;17.40;;;8.38;;
8857;SDS011;4465;50.904;4.696;2022-08-04T10:14:37;16.73;;;7.55;;
8857;SDS011;4465;50.904;4.696;2022-08-04T10:28:30;17.30;;;8.00;;
8857;SDS011;4465;50.904;4.696;2022-08-04T10:31:00;19.13;;;8.25;;
8857;SDS011;4465;50.904;4.696;2022-08-04T10:36:34;17.35;;;7.60;;
8857;SDS011;4465;50.904;4.696;2022-08-04T10:39:14;16.02;;;7.70;;
8857;SDS011;4465;50.904;4.696;2022-08-04T10:41:49;19.17;;;7.15;;
8857;SDS011;4465;50.904;4.696;2022-08-04T10:46:54;16.75;;;7.63;;
8857;SDS011;4465;50.904;4.696;2022-08-04T10:52:17;15.40;;;7.68;;
8857;SDS011;4465;50.904;4.696;2022-08-04T10:55:00;17.90;;;8.13;;
8857;SDS011;4465;50.904;4.696;2022-08-04T11:00:09;14.00;;;7.80;;
8857;SDS011;4465;50.904;4.696;2022-08-04T11:02:51;15.20;;;8.32;;
8857;SDS011;4465;50.904;4.696;2022-08-04T11:05:49;18.33;;;7.70;;
8857;SDS011;4465;50.904;4.696;2022-08-04T11:11:04;14.57;;;8.18;;
8857;SDS011;4465;50.904;4.696;2022-08-04T11:13:45;19.15;;;8.68;;
8857;SDS011;4465;50.904;4.696;2022-08-04T11:16:32;20.58;;;10.38;;
8857;SDS011;4465;50.904;4.696;2022-08-04T11:30:51;12.98;;;6.93;;
8857;SDS011;4465;50.904;4.696;2022-08-04T11:38:58;15.53;;;7.40;;
8857;SDS011;4465;50.904;4.696;2022-08-04T11:41:38;16.42;;;7.65;;
8857;SDS011;4465;50.904;4.696;2022-08-04T11:44:25;17.50;;;6.53;;
8857;SDS011;4465;50.904;4.696;2022-08-04T11:47:01;18.67;;;6.55;;
8857;SDS011;4465;50.904;4.696;2022-08-04T11:49:33;15.73;;;6.15;;
8857;SDS011;4465;50.904;4.696;2022-08-04T11:52:05;19.10;;;6.53;;
8857;SDS011;4465;50.904;4.696;2022-08-04T11:54:37;11.65;;;6.40;;
8857;SDS011;4465;50.904;4.696;2022-08-04T11:57:04;13.07;;;6.63;;
8857;SDS011;4465;50.904;4.696;2022-08-04T11:59:32;14.57;;;6.47;;
8857;SDS011;4465;50.904;4.696;2022-08-04T12:04:49;20.48;;;6.82;;
8857;SDS011;4465;50.904;4.696;2022-08-04T12:13:26;13.98;;;7.38;;
8857;SDS011;4465;50.904;4.696;2022-08-04T12:16:17;14.48;;;6.40;;
8857;SDS011;4465;50.904;4.696;2022-08-04T12:19:28;16.75;;;7.63;;
8857;SDS011;4465;50.904;4.696;2022-08-04T12:22:05;17.85;;;7.57;;
8857;SDS011;4465;50.904;4.696;2022-08-04T12:24:40;18.52;;;8.13;;
8857;SDS011;4465;50.904;4.696;2022-08-04T12:27:17;17.58;;;8.52;;
8857;SDS011;4465;50.904;4.696;2022-08-04T12:29:50;25.02;;;9.48;;
8857;SDS011;4465;50.904;4.696;2022-08-04T12:38:16;18.65;;;9.23;;
8857;SDS011;4465;50.904;4.696;2022-08-04T12:40:45;14.73;;;6.75;;
8857;SDS011;4465;50.904;4.696;2022-08-04T12:43:17;15.18;;;6.50;;
8857;SDS011;4465;50.904;4.696;2022-08-04T12:45:48;11.80;;;6.40;;
8857;SDS011;4465;50.904;4.696;2022-08-04T12:48:16;14.38;;;6.45;;
8857;SDS011;4465;50.904;4.696;2022-08-04T12:50:47;12.52;;;5.65;;
8857;SDS011;4465;50.904;4.696;2022-08-04T12:53:15;15.32;;;5.55;;
8857;SDS011;4465;50.904;4.696;2022-08-04T12:55:47;11.45;;;4.82;;
8857;SDS011;4465;50.904;4.696;2022-08-04T12:58:16;11.60;;;5.28;;
8857;SDS011;4465;50.904;4.696;2022-08-04T13:00:52;12.57;;;5.78;;
8857;SDS011;4465;50.904;4.696;2022-08-04T13:03:21;11.48;;;4.60;;
8857;SDS011;4465;50.904;4.696;2022-08-04T13:05:54;12.02;;;4.18;;
8857;SDS011;4465;50.904;4.696;2022-08-04T13:08:21;10.15;;;4.05;;
8857;SDS011;4465;50.904;4.696;2022-08-04T13:10:49;9.27;;;3.95;;
8857;SDS011;4465;50.904;4.696;2022-08-04T13:13:18;10.02;;;4.00;;
8857;SDS011;4465;50.904;4.696;2022-08-04T13:15:54;10.23;;;4.35;;
8857;SDS011;4465;50.904;4.696;2022-08-04T13:18:22;6.43;;;3.50;;
8857;SDS011;4465;50.904;4.696;2022-08-04T13:20:50;8.18;;;4.05;;
8857;SDS011;4465;50.904;4.696;2022-08-04T13:23:21;8.73;;;3.80;;
8857;SDS011;4465;50.904;4.696;2022-08-04T13:25:52;7.60;;;3.42;;
8857;SDS011;4465;50.904;4.696;2022-08-04T13:28:21;13.20;;;3.50;;
8857;SDS011;4465;50.904;4.696;2022-08-04T13:30:52;8.73;;;2.70;;
8857;SDS011;4465;50.904;4.696;2022-08-04T13:33:32;5.30;;;2.60;;
8857;SDS011;4465;50.904;4.696;2022-08-04T13:36:02;10.35;;;3.60;;
8857;SDS011;4465;50.904;4.696;2022-08-04T13:38:31;9.63;;;4.05;;
8857;SDS011;4465;50.904;4.696;2022-08-04T13:40:59;7.85;;;3.58;;
8857;SDS011;4465;50.904;4.696;2022-08-04T13:43:45;8.05;;;3.70;;
8857;SDS011;4465;50.904;4.696;2022-08-04T13:46:21;10.50;;;2.80;;
8857;SDS011;4465;50.904;4.696;2022-08-04T13:48:50;11.32;;;3.70;;
8857;SDS011;4465;50.904;4.696;2022-08-04T13:53:53;7.40;;;3.35;;
8857;SDS011;4465;50.904;4.696;2022-08-04T13:56:22;9.15;;;3.45;;
8857;SDS011;4465;50.904;4.696;2022-08-04T13:58:54;6.30;;;2.70;;
8857;SDS011;4465;50.904;4.696;2022-08-04T14:01:25;6.18;;;2.90;;
8857;SDS011;4465;50.904;4.696;2022-08-04T14:06:48;7.75;;;3.30;;
8857;SDS011;4465;50.904;4.696;2022-08-04T14:09:18;6.97;;;3.10;;
8857;SDS011;4465;50.904;4.696;2022-08-04T14:11:50;7.32;;;3.22;;
8857;SDS011;4465;50.904;4.696;2022-08-04T14:14:19;6.30;;;3.03;;
8857;SDS011;4465;50.904;4.696;2022-08-04T14:16:56;6.32;;;2.90;;
8857;SDS011;4465;50.904;4.696;2022-08-04T14:19:23;6.47;;;2.63;;
8857;SDS011;4465;50.904;4.696;2022-08-04T14:21:51;6.90;;;2.92;;
8857;SDS011;4465;50.904;4.696;2022-08-04T14:24:26;3.53;;;2.20;;
8857;SDS011;4465;50.904;4.696;2022-08-04T14:26:59;9.60;;;2.65;;
8857;SDS011;4465;50.904;4.696;2022-08-04T14:29:34;5.22;;;2.38;;
8857;SDS011;4465;50.904;4.696;2022-08-04T14:32:05;4.28;;;2.70;;
8857;SDS011;4465;50.904;4.696;2022-08-04T14:34:36;7.50;;;2.60;;
8857;SDS011;4465;50.904;4.696;2022-08-04T14:37:08;4.50;;;2.30;;
8857;SDS011;4465;50.904;4.696;2022-08-04T14:42:04;9.55;;;2.80;;
8857;SDS011;4465;50.904;4.696;2022-08-04T14:44:31;6.00;;;2.30;;
8857;SDS011;4465;50.904;4.696;2022-08-04T14:47:16;6.68;;;2.58;;
8857;SDS011;4465;50.904;4.696;2022-08-04T14:49:53;12.05;;;3.17;;
8857;SDS011;4465;50.904;4.696;2022-08-04T14:52:23;7.28;;;2.67;;
8857;SDS011;4465;50.904;4.696;2022-08-04T14:54:50;6.53;;;3.40;;
8857;SDS011;4465;50.904;4.696;2022-08-04T14:57:19;5.43;;;2.63;;
8857;SDS011;4465;50.904;4.696;2022-08-04T14:59:48;10.45;;;2.47;;
8857;SDS011;4465;50.904;4.696;2022-08-04T15:02:15;8.50;;;2.88;;
8857;SDS011;4465;50.904;4.696;2022-08-04T15:04:42;5.78;;;2.63;;
8857;SDS011;4465;50.904;4.696;2022-08-04T15:07:09;7.85;;;3.08;;
8857;SDS011;4465;50.904;4.696;2022-08-04T15:09:35;10.60;;;3.75;;
8857;SDS011;4465;50.904;4.696;2022-08-04T15:12:02;10.10;;;2.90;;
8857;SDS011;4465;50.904;4.696;2022-08-04T15:14:29;7.50;;;3.28;;
8857;SDS011;4465;50.904;4.696;2022-08-04T15:19:22;5.72;;;3.15;;
8857;SDS011;4465;50.904;4.696;2022-08-04T15:24:16;9.07;;;2.60;;
8857;SDS011;4465;50.904;4.696;2022-08-04T15:26:48;6.05;;;2.75;;
8857;SDS011;4465;50.904;4.696;2022-08-04T15:29:18;4.38;;;2.45;;
8857;SDS011;4465;50.904;4.696;2022-08-04T15:31:49;4.38;;;2.67;;
8857;SDS011;4465;50.904;4.696;2022-08-04T15:34:18;4.70;;;2.50;;
8857;SDS011;4465;50.904;4.696;2022-08-04T15:36:54;8.23;;;3.05;;
8857;SDS011;4465;50.904;4.696;2022-08-04T15:47:26;8.82;;;2.80;;
8857;SDS011;4465;50.904;4.696;2022-08-04T15:52:43;6.32;;;3.22;;
8857;SDS011;4465;50.904;4.696;2022-08-04T15:55:41;5.50;;;2.92;;
8857;SDS011;4465;50.904;4.696;2022-08-04T15:58:11;7.55;;;3.10;;
8857;SDS011;4465;50.904;4.696;2022-08-04T16:21:47;11.13;;;3.72;;
8857;SDS011;4465;50.904;4.696;2022-08-04T16:26:48;5.27;;;3.17;;
8857;SDS011;4465;50.904;4.696;2022-08-04T16:34:36;7.88;;;3.00;;
8857;SDS011;4465;50.904;4.696;2022-08-04T16:37:18;4.18;;;2.90;;
8857;SDS011;4465;50.904;4.696;2022-08-04T16:39:47;6.53;;;3.03;;
8857;SDS011;4465;50.904;4.696;2022-08-04T16:50:18;8.60;;;2.78;;
8857;SDS011;4465;50.904;4.696;2022-08-04T16:52:47;6.53;;;2.70;;
8857;SDS011;4465;50.904;4.696;2022-08-04T16:55:16;7.32;;;2.20;;
8857;SDS011;4465;50.904;4.696;2022-08-04T16:57:51;7.78;;;2.58;;
8857;SDS011;4465;50.904;4.696;2022-08-04T17:00:27;8.75;;;2.55;;
8857;SDS011;4465;50.904;4.696;2022-08-04T17:03:04;5.88;;;2.20;;
8857;SDS011;4465;50.904;4.696;2022-08-04T17:05:33;7.82;;;2.63;;
8857;SDS011;4465;50.904;4.696;2022-08-04T17:08:01;6.18;;;2.60;;
8857;SDS011;4465;50.904;4.696;2022-08-04T17:10:35;6.97;;;2.70;;
8857;SDS011;4465;50.904;4.696;2022-08-04T17:15:52;10.48;;;2.75;;
8857;SDS011;4465;50.904;4.696;2022-08-04T17:18:26;7.95;;;3.50;;
8857;SDS011;4465;50.904;4.696;2022-08-04T17:21:02;4.55;;;2.60;;
8857;SDS011;4465;50.904;4.696;2022-08-04T17:23:36;10.00;;;2.47;;
8857;SDS011;4465;50.904;4.696;2022-08-04T17:26:14;6.28;;;2.55;;
8857;SDS011;4465;50.904;4.696;2022-08-04T17:28:49;6.05;;;2.55;;
8857;SDS011;4465;50.904;4.696;2022-08-04T17:31:17;9.93;;;2.60;;
8857;SDS011;4465;50.904;4.696;2022-08-04T17:33:44;6.65;;;2.70;;
8857;SDS011;4465;50.904;4.696;2022-08-04T17:36:11;4.00;;;2.25;;
8857;SDS011;4465;50.904;4.696;2022-08-04T17:41:10;4.10;;;2.38;;
8857;SDS011;4465;50.904;4.696;2022-08-04T17:43:39;6.75;;;2.60;;
8857;SDS011;4465;50.904;4.696;2022-08-04T17:46:13;3.95;;;2.20;;
8857;SDS011;4465;50.904;4.696;2022-08-04T17:48:39;5.93;;;2.20;;
8857;SDS011;4465;50.904;4.696;2022-08-04T17:53:40;5.25;;;2.30;;
8857;SDS011;4465;50.904;4.696;2022-08-04T17:56:26;3.38;;;2.03;;
8857;SDS011;4465;50.904;4.696;2022-08-04T17:59:10;10.27;;;2.65;;
8857;SDS011;4465;50.904;4.696;2022-08-04T18:01:40;3.75;;;1.90;;
8857;SDS011;4465;50.904;4.696;2022-08-04T18:04:23;5.60;;;2.20;;
8857;SDS011;4465;50.904;4.696;2022-08-04T18:07:15;5.90;;;2.25;;
8857;SDS011;4465;50.904;4.696;2022-08-04T18:09:41;4.45;;;2.50;;
8857;SDS011;4465;50.904;4.696;2022-08-04T18:12:22;4.82;;;2.20;;
8857;SDS011;4465;50.904;4.696;2022-08-04T18:14:51;6.70;;;2.28;;
8857;SDS011;4465;50.904;4.696;2022-08-04T18:17:29;4.88;;;2.20;;
8857;SDS011;4465;50.904;4.696;2022-08-04T18:20:01;5.50;;;2.25;;
8857;SDS011;4465;50.904;4.696;2022-08-04T18:22:29;6.55;;;2.10;;
8857;SDS011;4465;50.904;4.696;2022-08-04T18:24:55;7.88;;;1.88;;
8857;SDS011;4465;50.904;4.696;2022-08-04T18:27:24;6.63;;;2.58;;
8857;SDS011;4465;50.904;4.696;2022-08-04T18:29:52;4.22;;;2.10;;
8857;SDS011;4465;50.904;4.696;2022-08-04T18:32:19;7.03;;;1.92;;
8857;SDS011;4465;50.904;4.696;2022-08-04T18:34:50;5.53;;;2.28;;
8857;SDS011;4465;50.904;4.696;2022-08-04T18:37:17;4.05;;;2.15;;
8857;SDS011;4465;50.904;4.696;2022-08-04T18:39:44;4.22;;;1.80;;
8857;SDS011;4465;50.904;4.696;2022-08-04T18:42:10;6.50;;;1.80;;
8857;SDS011;4465;50.904;4.696;2022-08-04T18:44:37;5.28;;;2.28;;
8857;SDS011;4465;50.904;4.696;2022-08-04T18:47:03;9.50;;;2.10;;
8857;SDS011;4465;50.904;4.696;2022-08-04T18:49:30;5.53;;;2.15;;
8857;SDS011;4465;50.904;4.696;2022-08-04T18:51:59;7.07;;;2.45;;
8857;SDS011;4465;50.904;4.696;2022-08-04T18:54:30;10.75;;;2.53;;
8857;SDS011;4465;50.904;4.696;2022-08-04T18:56:56;7.63;;;2.17;;
8857;SDS011;4465;50.904;4.696;2022-08-04T18:59:22;4.40;;;2.07;;
8857;SDS011;4465;50.904;4.696;2022-08-04T19:01:49;6.68;;;2.00;;
8857;SDS011;4465;50.904;4.696;2022-08-04T19:04:14;15.02;;;2.50;;
8857;SDS011;4465;50.904;4.696;2022-08-04T19:06:41;13.30;;;2.40;;
8857;SDS011;4465;50.904;4.696;2022-08-04T19:09:07;5.25;;;2.30;;
8857;SDS011;4465;50.904;4.696;2022-08-04T19:11:35;5.40;;;2.78;;
8857;SDS011;4465;50.904;4.696;2022-08-04T19:14:04;9.65;;;2.45;;
8857;SDS011;4465;50.904;4.696;2022-08-04T19:16:31;6.75;;;2.40;;
8857;SDS011;4465;50.904;4.696;2022-08-04T19:21:25;9.48;;;2.95;;
8857;SDS011;4465;50.904;4.696;2022-08-04T19:23:52;9.45;;;3.10;;
8857;SDS011;4465;50.904;4.696;2022-08-04T19:26:18;10.23;;;3.30;;
8857;SDS011;4465;50.904;4.696;2022-08-04T19:28:47;11.75;;;3.33;;
8857;SDS011;4465;50.904;4.696;2022-08-04T19:31:16;14.95;;;3.15;;
8857;SDS011;4465;50.904;4.696;2022-08-04T19:33:43;9.07;;;3.10;;
8857;SDS011;4465;50.904;4.696;2022-08-04T19:36:11;9.77;;;3.95;;
8857;SDS011;4465;50.904;4.696;2022-08-04T19:38:40;10.55;;;3.55;;
8857;SDS011;4465;50.904;4.696;2022-08-04T19:41:09;11.18;;;3.60;;
8857;SDS011;4465;50.904;4.696;2022-08-04T19:43:36;7.00;;;3.50;;
8857;SDS011;4465;50.904;4.696;2022-08-04T19:46:02;6.63;;;3.95;;
8857;SDS011;4465;50.904;4.696;2022-08-04T19:48:28;8.68;;;3.72;;
8857;SDS011;4465;50.904;4.696;2022-08-04T19:50:55;10.52;;;3.50;;
8857;SDS011;4465;50.904;4.696;2022-08-04T19:53:21;10.40;;;3.67;;
8857;SDS011;4465;50.904;4.696;2022-08-04T19:55:49;11.88;;;4.50;;
8857;SDS011;4465;50.904;4.696;2022-08-04T19:58:15;9.02;;;4.43;;
8857;SDS011;4465;50.904;4.696;2022-08-04T20:00:42;8.17;;;4.07;;
8857;SDS011;4465;50.904;4.696;2022-08-04T20:03:08;7.47;;;4.38;;
8857;SDS011;4465;50.904;4.696;2022-08-04T20:05:38;8.90;;;4.43;;
8857;SDS011;4465;50.904;4.696;2022-08-04T20:08:05;8.73;;;4.80;;
8857;SDS011;4465;50.904;4.696;2022-08-04T20:10:31;11.73;;;5.50;;
8857;SDS011;4465;50.904;4.696;2022-08-04T20:12:57;11.95;;;5.38;;
8857;SDS011;4465;50.904;4.696;2022-08-04T20:15:23;10.73;;;4.72;;
8857;SDS011;4465;50.904;4.696;2022-08-04T20:17:49;12.23;;;5.97;;
8857;SDS011;4465;50.904;4.696;2022-08-04T20:20:15;11.95;;;5.85;;
8857;SDS011;4465;50.904;4.696;2022-08-04T20:22:41;8.65;;;5.70;;
8857;SDS011;4465;50.904;4.696;2022-08-04T20:25:08;10.27;;;5.22;;
8857;SDS011;4465;50.904;4.696;2022-08-04T20:27:35;8.40;;;4.70;;
8857;SDS011;4465;50.904;4.696;2022-08-04T20:30:02;11.82;;;5.35;;
8857;SDS011;4465;50.904;4.696;2022-08-04T20:32:28;10.77;;;5.75;;
8857;SDS011;4465;50.904;4.696;2022-08-04T20:34:54;12.73;;;5.65;;
8857;SDS011;4465;50.904;4.696;2022-08-04T20:42:23;14.55;;;4.95;;
8857;SDS011;4465;50.904;4.696;2022-08-04T20:44:51;11.20;;;5.00;;
8857;SDS011;4465;50.904;4.696;2022-08-04T20:47:17;9.40;;;4.82;;
8857;SDS011;4465;50.904;4.696;2022-08-04T20:49:43;14.70;;;5.35;;
8857;SDS011;4465;50.904;4.696;2022-08-04T20:52:11;10.85;;;5.63;;
8857;SDS011;4465;50.904;4.696;2022-08-04T20:54:39;11.83;;;5.17;;
8857;SDS011;4465;50.904;4.696;2022-08-04T20:59:32;11.40;;;5.70;;
8857;SDS011;4465;50.904;4.696;2022-08-04T21:02:03;10.98;;;5.65;;
8857;SDS011;4465;50.904;4.696;2022-08-04T21:04:30;10.52;;;5.30;;
8857;SDS011;4465;50.904;4.696;2022-08-04T21:07:07;12.65;;;5.47;;